sensor_id;sensor_type;location;lat;lon;timestamp;pressure;altitude;pressure_sealevel;temperature
23208;BMP180;11773;52.570;13.052;2023-01-29T00:00:30;102366.00;;;6.90
23208;BMP180;11773;52.570;13.052;2023-01-29T00:03:00;102368.00;;;6.90
23208;BMP180;11773;52.570;13.052;2023-01-29T00:05:30;102361.00;;;6.90
23208;BMP180;11773;52.570;13.052;2023-01-29T00:08:00;102356.00;;;6.90
23208;BMP180;11773;52.570;13.052;2023-01-29T00:10:30;102361.00;;;6.90
23208;BMP180;11773;52.570;13.052;2023-01-29T00:12:59;102365.00;;;6.90
23208;BMP180;11773;52.570;13.052;2023-01-29T00:15:29;102357.00;;;6.90
23208;BMP180;11773;52.570;13.052;2023-01-29T00:17:58;102363.00;;;6.90
23208;BMP180;11773;52.570;13.052;2023-01-29T00:20:27;102361.00;;;6.90
23208;BMP180;11773;52.570;13.052;2023-01-29T00:22:57;102367.00;;;6.90
23208;BMP180;11773;52.570;13.052;2023-01-29T00:25:26;102347.00;;;6.90
23208;BMP180;11773;52.570;13.052;2023-01-29T00:27:56;102351.00;;;6.90
23208;BMP180;11773;52.570;13.052;2023-01-29T00:30:25;102351.00;;;6.90
23208;BMP180;11773;52.570;13.052;2023-01-29T00:32:56;102343.00;;;6.90
23208;BMP180;11773;52.570;13.052;2023-01-29T00:35:25;102342.00;;;6.90
23208;BMP180;11773;52.570;13.052;2023-01-29T00:37:55;102329.00;;;6.90
23208;BMP180;11773;52.570;13.052;2023-01-29T00:40:26;102318.00;;;6.90
23208;BMP180;11773;52.570;13.052;2023-01-29T00:42:55;102323.00;;;6.90
23208;BMP180;11773;52.570;13.052;2023-01-29T00:45:43;102335.00;;;6.90
23208;BMP180;11773;52.570;13.052;2023-01-29T00:48:12;102327.00;;;6.90
23208;BMP180;11773;52.570;13.052;2023-01-29T00:50:42;102329.00;;;6.90
23208;BMP180;11773;52.570;13.052;2023-01-29T00:53:11;102331.00;;;6.90
23208;BMP180;11773;52.570;13.052;2023-01-29T00:55:40;102346.00;;;7.00
23208;BMP180;11773;52.570;13.052;2023-01-29T00:58:10;102349.00;;;7.00
23208;BMP180;11773;52.570;13.052;2023-01-29T01:00:39;102344.00;;;7.00
23208;BMP180;11773;52.570;13.052;2023-01-29T01:03:10;102334.00;;;7.00
23208;BMP180;11773;52.570;13.052;2023-01-29T01:05:39;102332.00;;;7.00
23208;BMP180;11773;52.570;13.052;2023-01-29T01:08:10;102350.00;;;6.90
23208;BMP180;11773;52.570;13.052;2023-01-29T01:11:06;102347.00;;;6.90
23208;BMP180;11773;52.570;13.052;2023-01-29T01:13:35;102349.00;;;6.90
23208;BMP180;11773;52.570;13.052;2023-01-29T01:16:10;102342.00;;;6.90
23208;BMP180;11773;52.570;13.052;2023-01-29T01:18:41;102349.00;;;6.90
23208;BMP180;11773;52.570;13.052;2023-01-29T01:21:10;102331.00;;;6.90
23208;BMP180;11773;52.570;13.052;2023-01-29T01:23:40;102329.00;;;6.90
23208;BMP180;11773;52.570;13.052;2023-01-29T01:26:10;102321.00;;;6.90
23208;BMP180;11773;52.570;13.052;2023-01-29T01:28:39;102332.00;;;6.90
23208;BMP180;11773;52.570;13.052;2023-01-29T01:31:11;102324.00;;;6.90
23208;BMP180;11773;52.570;13.052;2023-01-29T01:33:41;102347.00;;;6.90
23208;BMP180;11773;52.570;13.052;2023-01-29T01:36:11;102330.00;;;6.90
23208;BMP180;11773;52.570;13.052;2023-01-29T01:38:41;102335.00;;;6.90
23208;BMP180;11773;52.570;13.052;2023-01-29T01:41:17;102340.00;;;6.90
23208;BMP180;11773;52.570;13.052;2023-01-29T01:43:53;102350.00;;;6.90
23208;BMP180;11773;52.570;13.052;2023-01-29T01:46:31;102330.00;;;6.90
23208;BMP180;11773;52.570;13.052;2023-01-29T01:49:25;102333.00;;;6.90
23208;BMP180;11773;52.570;13.052;2023-01-29T01:51:54;102341.00;;;6.90
23208;BMP180;11773;52.570;13.052;2023-01-29T01:54:30;102315.00;;;6.90
23208;BMP180;11773;52.570;13.052;2023-01-29T01:57:05;102310.00;;;6.80
23208;BMP180;11773;52.570;13.052;2023-01-29T01:59:50;102317.00;;;6.90
23208;BMP180;11773;52.570;13.052;2023-01-29T02:02:17;102302.00;;;6.80
23208;BMP180;11773;52.570;13.052;2023-01-29T02:05:04;102300.00;;;6.80
23208;BMP180;11773;52.570;13.052;2023-01-29T02:07:52;102296.00;;;6.80
23208;BMP180;11773;52.570;13.052;2023-01-29T02:10:44;102306.00;;;6.80
23208;BMP180;11773;52.570;13.052;2023-01-29T02:13:14;102293.00;;;6.80
23208;BMP180;11773;52.570;13.052;2023-01-29T02:15:46;102288.00;;;6.80
23208;BMP180;11773;52.570;13.052;2023-01-29T02:18:19;102283.00;;;6.80
23208;BMP180;11773;52.570;13.052;2023-01-29T02:24:59;102290.00;;;6.70
23208;BMP180;11773;52.570;13.052;2023-01-29T02:30:56;102300.00;;;6.70
23208;BMP180;11773;52.570;13.052;2023-01-29T02:33:25;102302.00;;;6.80
23208;BMP180;11773;52.570;13.052;2023-01-29T02:39:20;102289.00;;;6.70
23208;BMP180;11773;52.570;13.052;2023-01-29T02:42:21;102289.00;;;6.70
23208;BMP180;11773;52.570;13.052;2023-01-29T02:45:14;102289.00;;;6.70
23208;BMP180;11773;52.570;13.052;2023-01-29T02:47:59;102280.00;;;6.70
23208;BMP180;11773;52.570;13.052;2023-01-29T02:50:42;102297.00;;;6.70
23208;BMP180;11773;52.570;13.052;2023-01-29T02:53:19;102301.00;;;6.80
23208;BMP180;11773;52.570;13.052;2023-01-29T02:56:19;102295.00;;;6.80
23208;BMP180;11773;52.570;13.052;2023-01-29T02:58:53;102286.00;;;6.80
23208;BMP180;11773;52.570;13.052;2023-01-29T03:01:26;102287.00;;;6.80
23208;BMP180;11773;52.570;13.052;2023-01-29T03:04:00;102278.00;;;6.80
23208;BMP180;11773;52.570;13.052;2023-01-29T03:06:34;102268.00;;;6.80
23208;BMP180;11773;52.570;13.052;2023-01-29T03:09:49;102276.00;;;6.90
23208;BMP180;11773;52.570;13.052;2023-01-29T03:11:44;102271.00;;;6.90
23208;BMP180;11773;52.570;13.052;2023-01-29T03:14:29;102279.00;;;6.90
23208;BMP180;11773;52.570;13.052;2023-01-29T03:16:58;102287.00;;;6.90
23208;BMP180;11773;52.570;13.052;2023-01-29T03:19:38;102285.00;;;6.90
23208;BMP180;11773;52.570;13.052;2023-01-29T03:22:10;102283.00;;;7.00
23208;BMP180;11773;52.570;13.052;2023-01-29T03:24:58;102277.00;;;7.00
23208;BMP180;11773;52.570;13.052;2023-01-29T03:27:57;102266.00;;;7.00
23208;BMP180;11773;52.570;13.052;2023-01-29T03:30:47;102259.00;;;7.00
23208;BMP180;11773;52.570;13.052;2023-01-29T03:33:47;102250.00;;;7.00
23208;BMP180;11773;52.570;13.052;2023-01-29T03:36:38;102248.00;;;7.00
23208;BMP180;11773;52.570;13.052;2023-01-29T03:39:09;102241.00;;;6.90
23208;BMP180;11773;52.570;13.052;2023-01-29T03:41:59;102236.00;;;7.00
23208;BMP180;11773;52.570;13.052;2023-01-29T03:50:49;102239.00;;;6.90
23208;BMP180;11773;52.570;13.052;2023-01-29T03:53:41;102230.00;;;6.80
23208;BMP180;11773;52.570;13.052;2023-01-29T03:56:44;102215.00;;;6.80
23208;BMP180;11773;52.570;13.052;2023-01-29T03:59:21;102202.00;;;6.80
23208;BMP180;11773;52.570;13.052;2023-01-29T04:02:02;102202.00;;;6.80
23208;BMP180;11773;52.570;13.052;2023-01-29T04:04:36;102196.00;;;6.80
23208;BMP180;11773;52.570;13.052;2023-01-29T04:07:19;102188.00;;;6.80
23208;BMP180;11773;52.570;13.052;2023-01-29T04:09:55;102186.00;;;6.80
23208;BMP180;11773;52.570;13.052;2023-01-29T04:12:29;102183.00;;;6.80
23208;BMP180;11773;52.570;13.052;2023-01-29T04:15:01;102172.00;;;6.80
23208;BMP180;11773;52.570;13.052;2023-01-29T04:17:38;102172.00;;;6.80
23208;BMP180;11773;52.570;13.052;2023-01-29T04:20:10;102178.00;;;6.80
23208;BMP180;11773;52.570;13.052;2023-01-29T04:22:43;102178.00;;;6.90
23208;BMP180;11773;52.570;13.052;2023-01-29T04:25:20;102163.00;;;6.90
23208;BMP180;11773;52.570;13.052;2023-01-29T04:28:22;102155.00;;;6.90
23208;BMP180;11773;52.570;13.052;2023-01-29T04:30:58;102153.00;;;6.80
23208;BMP180;11773;52.570;13.052;2023-01-29T04:33:44;102157.00;;;6.80
23208;BMP180;11773;52.570;13.052;2023-01-29T04:39:31;102168.00;;;6.80
23208;BMP180;11773;52.570;13.052;2023-01-29T04:42:11;102167.00;;;6.80
23208;BMP180;11773;52.570;13.052;2023-01-29T04:50:40;102181.00;;;6.70
23208;BMP180;11773;52.570;13.052;2023-01-29T04:54:06;102164.00;;;6.80
23208;BMP180;11773;52.570;13.052;2023-01-29T04:56:08;102184.00;;;6.80
23208;BMP180;11773;52.570;13.052;2023-01-29T04:58:42;102169.00;;;6.80
23208;BMP180;11773;52.570;13.052;2023-01-29T05:01:16;102173.00;;;6.80
23208;BMP180;11773;52.570;13.052;2023-01-29T05:03:50;102170.00;;;6.80
23208;BMP180;11773;52.570;13.052;2023-01-29T05:06:23;102164.00;;;6.80
23208;BMP180;11773;52.570;13.052;2023-01-29T05:08:54;102159.00;;;6.80
23208;BMP180;11773;52.570;13.052;2023-01-29T05:11:25;102159.00;;;6.90
23208;BMP180;11773;52.570;13.052;2023-01-29T05:13:56;102161.00;;;6.90
23208;BMP180;11773;52.570;13.052;2023-01-29T05:16:31;102159.00;;;6.90
23208;BMP180;11773;52.570;13.052;2023-01-29T05:19:02;102161.00;;;6.90
23208;BMP180;11773;52.570;13.052;2023-01-29T05:21:32;102164.00;;;6.90
23208;BMP180;11773;52.570;13.052;2023-01-29T05:24:24;102173.00;;;6.90
23208;BMP180;11773;52.570;13.052;2023-01-29T05:26:54;102169.00;;;6.90
23208;BMP180;11773;52.570;13.052;2023-01-29T05:29:45;102170.00;;;6.90
23208;BMP180;11773;52.570;13.052;2023-01-29T05:32:15;102170.00;;;6.90
23208;BMP180;11773;52.570;13.052;2023-01-29T05:34:45;102171.00;;;6.90
23208;BMP180;11773;52.570;13.052;2023-01-29T05:37:14;102170.00;;;7.00
23208;BMP180;11773;52.570;13.052;2023-01-29T05:39:44;102173.00;;;7.00
23208;BMP180;11773;52.570;13.052;2023-01-29T05:42:13;102175.00;;;7.00
23208;BMP180;11773;52.570;13.052;2023-01-29T05:44:43;102190.00;;;7.00
23208;BMP180;11773;52.570;13.052;2023-01-29T05:47:12;102172.00;;;7.10
23208;BMP180;11773;52.570;13.052;2023-01-29T05:49:42;102173.00;;;7.10
23208;BMP180;11773;52.570;13.052;2023-01-29T05:52:11;102179.00;;;7.10
23208;BMP180;11773;52.570;13.052;2023-01-29T05:54:41;102172.00;;;7.10
23208;BMP180;11773;52.570;13.052;2023-01-29T05:57:10;102179.00;;;7.10
23208;BMP180;11773;52.570;13.052;2023-01-29T05:59:39;102185.00;;;7.10
23208;BMP180;11773;52.570;13.052;2023-01-29T06:02:09;102200.00;;;7.10
23208;BMP180;11773;52.570;13.052;2023-01-29T06:04:38;102185.00;;;7.10
23208;BMP180;11773;52.570;13.052;2023-01-29T06:07:08;102185.00;;;7.10
23208;BMP180;11773;52.570;13.052;2023-01-29T06:09:37;102196.00;;;7.10
23208;BMP180;11773;52.570;13.052;2023-01-29T06:12:07;102193.00;;;7.20
23208;BMP180;11773;52.570;13.052;2023-01-29T06:14:36;102195.00;;;7.20
23208;BMP180;11773;52.570;13.052;2023-01-29T06:17:06;102207.00;;;7.20
23208;BMP180;11773;52.570;13.052;2023-01-29T06:19:35;102194.00;;;7.20
23208;BMP180;11773;52.570;13.052;2023-01-29T06:22:05;102196.00;;;7.20
23208;BMP180;11773;52.570;13.052;2023-01-29T06:24:34;102172.00;;;7.20
23208;BMP180;11773;52.570;13.052;2023-01-29T06:27:04;102179.00;;;7.20
23208;BMP180;11773;52.570;13.052;2023-01-29T06:29:34;102171.00;;;7.20
23208;BMP180;11773;52.570;13.052;2023-01-29T06:32:03;102189.00;;;7.20
23208;BMP180;11773;52.570;13.052;2023-01-29T06:34:33;102205.00;;;7.30
23208;BMP180;11773;52.570;13.052;2023-01-29T06:37:03;102192.00;;;7.20
23208;BMP180;11773;52.570;13.052;2023-01-29T06:39:32;102180.00;;;7.20
23208;BMP180;11773;52.570;13.052;2023-01-29T06:42:02;102191.00;;;7.20
23208;BMP180;11773;52.570;13.052;2023-01-29T06:44:31;102193.00;;;7.30
23208;BMP180;11773;52.570;13.052;2023-01-29T06:47:01;102189.00;;;7.30
23208;BMP180;11773;52.570;13.052;2023-01-29T06:49:30;102194.00;;;7.30
23208;BMP180;11773;52.570;13.052;2023-01-29T06:52:00;102193.00;;;7.30
23208;BMP180;11773;52.570;13.052;2023-01-29T06:54:29;102201.00;;;7.30
23208;BMP180;11773;52.570;13.052;2023-01-29T06:56:59;102196.00;;;7.30
23208;BMP180;11773;52.570;13.052;2023-01-29T06:59:28;102191.00;;;7.30
23208;BMP180;11773;52.570;13.052;2023-01-29T07:01:58;102191.00;;;7.30
23208;BMP180;11773;52.570;13.052;2023-01-29T07:04:27;102191.00;;;7.30
23208;BMP180;11773;52.570;13.052;2023-01-29T07:06:59;102182.00;;;7.30
23208;BMP180;11773;52.570;13.052;2023-01-29T07:09:28;102199.00;;;7.30
23208;BMP180;11773;52.570;13.052;2023-01-29T07:11:58;102186.00;;;7.30
23208;BMP180;11773;52.570;13.052;2023-01-29T07:14:28;102182.00;;;7.30
23208;BMP180;11773;52.570;13.052;2023-01-29T07:16:57;102171.00;;;7.40
23208;BMP180;11773;52.570;13.052;2023-01-29T07:19:27;102188.00;;;7.40
23208;BMP180;11773;52.570;13.052;2023-01-29T07:21:56;102178.00;;;7.40
23208;BMP180;11773;52.570;13.052;2023-01-29T07:24:27;102194.00;;;7.40
23208;BMP180;11773;52.570;13.052;2023-01-29T07:26:57;102202.00;;;7.40
23208;BMP180;11773;52.570;13.052;2023-01-29T07:29:26;102191.00;;;7.40
23208;BMP180;11773;52.570;13.052;2023-01-29T07:31:56;102192.00;;;7.40
23208;BMP180;11773;52.570;13.052;2023-01-29T07:34:25;102205.00;;;7.40
23208;BMP180;11773;52.570;13.052;2023-01-29T07:36:55;102202.00;;;7.40
23208;BMP180;11773;52.570;13.052;2023-01-29T07:39:24;102191.00;;;7.40
23208;BMP180;11773;52.570;13.052;2023-01-29T07:41:54;102191.00;;;7.40
23208;BMP180;11773;52.570;13.052;2023-01-29T07:44:23;102174.00;;;7.50
23208;BMP180;11773;52.570;13.052;2023-01-29T07:46:53;102176.00;;;7.40
23208;BMP180;11773;52.570;13.052;2023-01-29T07:49:22;102152.00;;;7.50
23208;BMP180;11773;52.570;13.052;2023-01-29T07:51:52;102155.00;;;7.50
23208;BMP180;11773;52.570;13.052;2023-01-29T07:54:21;102161.00;;;7.50
23208;BMP180;11773;52.570;13.052;2023-01-29T07:56:50;102167.00;;;7.50
23208;BMP180;11773;52.570;13.052;2023-01-29T07:59:20;102167.00;;;7.50
23208;BMP180;11773;52.570;13.052;2023-01-29T08:01:49;102152.00;;;7.50
23208;BMP180;11773;52.570;13.052;2023-01-29T08:04:19;102165.00;;;7.50
23208;BMP180;11773;52.570;13.052;2023-01-29T08:06:48;102154.00;;;7.50
23208;BMP180;11773;52.570;13.052;2023-01-29T08:09:18;102139.00;;;7.50
23208;BMP180;11773;52.570;13.052;2023-01-29T08:11:47;102132.00;;;7.50
23208;BMP180;11773;52.570;13.052;2023-01-29T08:14:17;102150.00;;;7.50
23208;BMP180;11773;52.570;13.052;2023-01-29T08:16:46;102144.00;;;7.50
23208;BMP180;11773;52.570;13.052;2023-01-29T08:19:16;102150.00;;;7.50
23208;BMP180;11773;52.570;13.052;2023-01-29T08:21:45;102142.00;;;7.50
23208;BMP180;11773;52.570;13.052;2023-01-29T08:24:15;102152.00;;;7.50
23208;BMP180;11773;52.570;13.052;2023-01-29T08:26:45;102143.00;;;7.50
23208;BMP180;11773;52.570;13.052;2023-01-29T08:29:14;102136.00;;;7.50
23208;BMP180;11773;52.570;13.052;2023-01-29T08:31:44;102135.00;;;7.50
23208;BMP180;11773;52.570;13.052;2023-01-29T08:34:13;102146.00;;;7.50
23208;BMP180;11773;52.570;13.052;2023-01-29T08:36:43;102144.00;;;7.50
23208;BMP180;11773;52.570;13.052;2023-01-29T08:39:12;102159.00;;;7.50
23208;BMP180;11773;52.570;13.052;2023-01-29T08:41:42;102155.00;;;7.50
23208;BMP180;11773;52.570;13.052;2023-01-29T08:44:11;102147.00;;;7.50
23208;BMP180;11773;52.570;13.052;2023-01-29T08:46:40;102145.00;;;7.50
23208;BMP180;11773;52.570;13.052;2023-01-29T08:49:10;102137.00;;;7.50
23208;BMP180;11773;52.570;13.052;2023-01-29T08:51:39;102141.00;;;7.50
23208;BMP180;11773;52.570;13.052;2023-01-29T08:54:09;102138.00;;;7.50
23208;BMP180;11773;52.570;13.052;2023-01-29T08:56:39;102138.00;;;7.50
23208;BMP180;11773;52.570;13.052;2023-01-29T08:59:10;102144.00;;;7.50
23208;BMP180;11773;52.570;13.052;2023-01-29T09:01:39;102156.00;;;7.50
23208;BMP180;11773;52.570;13.052;2023-01-29T09:04:09;102143.00;;;7.50
23208;BMP180;11773;52.570;13.052;2023-01-29T09:06:38;102122.00;;;7.50
23208;BMP180;11773;52.570;13.052;2023-01-29T09:09:08;102127.00;;;7.60
23208;BMP180;11773;52.570;13.052;2023-01-29T09:11:37;102131.00;;;7.60
23208;BMP180;11773;52.570;13.052;2023-01-29T09:14:07;102147.00;;;7.60
23208;BMP180;11773;52.570;13.052;2023-01-29T09:16:39;102149.00;;;7.60
23208;BMP180;11773;52.570;13.052;2023-01-29T09:19:08;102150.00;;;7.60
23208;BMP180;11773;52.570;13.052;2023-01-29T09:21:38;102133.00;;;7.60
23208;BMP180;11773;52.570;13.052;2023-01-29T09:24:07;102135.00;;;7.60
23208;BMP180;11773;52.570;13.052;2023-01-29T09:26:38;102131.00;;;7.60
23208;BMP180;11773;52.570;13.052;2023-01-29T09:29:10;102117.00;;;7.60
23208;BMP180;11773;52.570;13.052;2023-01-29T09:31:39;102106.00;;;7.60
23208;BMP180;11773;52.570;13.052;2023-01-29T09:34:09;102108.00;;;7.60
23208;BMP180;11773;52.570;13.052;2023-01-29T09:36:38;102107.00;;;7.70
23208;BMP180;11773;52.570;13.052;2023-01-29T09:39:08;102103.00;;;7.70
23208;BMP180;11773;52.570;13.052;2023-01-29T09:45:03;102111.00;;;7.70
23208;BMP180;11773;52.570;13.052;2023-01-29T09:47:35;102104.00;;;7.70
23208;BMP180;11773;52.570;13.052;2023-01-29T09:50:11;102093.00;;;7.70
23208;BMP180;11773;52.570;13.052;2023-01-29T09:52:46;102085.00;;;7.70
23208;BMP180;11773;52.570;13.052;2023-01-29T09:55:49;102089.00;;;7.80
23208;BMP180;11773;52.570;13.052;2023-01-29T09:58:22;102090.00;;;7.80
23208;BMP180;11773;52.570;13.052;2023-01-29T10:04:45;102088.00;;;7.80
23208;BMP180;11773;52.570;13.052;2023-01-29T10:07:16;102092.00;;;7.80
23208;BMP180;11773;52.570;13.052;2023-01-29T10:10:13;102087.00;;;7.80
23208;BMP180;11773;52.570;13.052;2023-01-29T10:13:10;102094.00;;;7.80
23208;BMP180;11773;52.570;13.052;2023-01-29T10:15:59;102079.00;;;7.80
23208;BMP180;11773;52.570;13.052;2023-01-29T10:18:53;102066.00;;;7.80
23208;BMP180;11773;52.570;13.052;2023-01-29T10:21:45;102068.00;;;7.90
23208;BMP180;11773;52.570;13.052;2023-01-29T10:24:36;102074.00;;;7.90
23208;BMP180;11773;52.570;13.052;2023-01-29T10:27:16;102082.00;;;7.90
23208;BMP180;11773;52.570;13.052;2023-01-29T10:29:49;102080.00;;;8.00
23208;BMP180;11773;52.570;13.052;2023-01-29T10:32:24;102080.00;;;8.00
23208;BMP180;11773;52.570;13.052;2023-01-29T10:35:30;102073.00;;;8.10
23208;BMP180;11773;52.570;13.052;2023-01-29T10:38:14;102075.00;;;8.10
23208;BMP180;11773;52.570;13.052;2023-01-29T10:50:23;102051.00;;;8.20
23208;BMP180;11773;52.570;13.052;2023-01-29T10:53:17;102043.00;;;8.20
23208;BMP180;11773;52.570;13.052;2023-01-29T10:59:00;102032.00;;;8.20
23208;BMP180;11773;52.570;13.052;2023-01-29T11:01:29;102027.00;;;8.30
23208;BMP180;11773;52.570;13.052;2023-01-29T11:04:08;102018.00;;;8.30
23208;BMP180;11773;52.570;13.052;2023-01-29T11:06:37;102009.00;;;8.40
23208;BMP180;11773;52.570;13.052;2023-01-29T11:09:27;102019.00;;;8.40
23208;BMP180;11773;52.570;13.052;2023-01-29T11:12:12;102025.00;;;8.50
23208;BMP180;11773;52.570;13.052;2023-01-29T11:15:31;102001.00;;;8.50
23208;BMP180;11773;52.570;13.052;2023-01-29T11:17:21;102007.00;;;8.50
23208;BMP180;11773;52.570;13.052;2023-01-29T11:19:53;101996.00;;;8.60
23208;BMP180;11773;52.570;13.052;2023-01-29T11:22:28;101986.00;;;8.60
23208;BMP180;11773;52.570;13.052;2023-01-29T11:25:15;101992.00;;;8.70
23208;BMP180;11773;52.570;13.052;2023-01-29T11:27:56;101989.00;;;8.70
23208;BMP180;11773;52.570;13.052;2023-01-29T11:30:35;101983.00;;;8.70
23208;BMP180;11773;52.570;13.052;2023-01-29T11:33:21;101973.00;;;8.70
23208;BMP180;11773;52.570;13.052;2023-01-29T11:35:51;101963.00;;;8.70
23208;BMP180;11773;52.570;13.052;2023-01-29T11:38:26;101964.00;;;8.80
23208;BMP180;11773;52.570;13.052;2023-01-29T11:41:14;101956.00;;;8.80
23208;BMP180;11773;52.570;13.052;2023-01-29T11:43:39;101959.00;;;8.80
23208;BMP180;11773;52.570;13.052;2023-01-29T11:46:14;101968.00;;;8.80
23208;BMP180;11773;52.570;13.052;2023-01-29T11:48:50;101960.00;;;8.80
23208;BMP180;11773;52.570;13.052;2023-01-29T11:51:28;101957.00;;;8.80
23208;BMP180;11773;52.570;13.052;2023-01-29T11:54:01;101964.00;;;8.90
23208;BMP180;11773;52.570;13.052;2023-01-29T11:56:43;101947.00;;;8.90
23208;BMP180;11773;52.570;13.052;2023-01-29T11:59:31;101952.00;;;8.90
23208;BMP180;11773;52.570;13.052;2023-01-29T12:05:21;101948.00;;;8.90
23208;BMP180;11773;52.570;13.052;2023-01-29T12:07:39;101940.00;;;9.00
23208;BMP180;11773;52.570;13.052;2023-01-29T12:10:38;101944.00;;;9.00
23208;BMP180;11773;52.570;13.052;2023-01-29T12:15:48;101943.00;;;9.00
23208;BMP180;11773;52.570;13.052;2023-01-29T12:18:42;101942.00;;;9.10
23208;BMP180;11773;52.570;13.052;2023-01-29T12:21:47;101927.00;;;9.10
23208;BMP180;11773;52.570;13.052;2023-01-29T12:27:21;101930.00;;;9.10
23208;BMP180;11773;52.570;13.052;2023-01-29T12:30:16;101926.00;;;9.10
23208;BMP180;11773;52.570;13.052;2023-01-29T12:33:02;101915.00;;;9.10
23208;BMP180;11773;52.570;13.052;2023-01-29T12:35:51;101915.00;;;9.10
23208;BMP180;11773;52.570;13.052;2023-01-29T12:38:22;101896.00;;;9.10
23208;BMP180;11773;52.570;13.052;2023-01-29T12:41:19;101888.00;;;9.10
23208;BMP180;11773;52.570;13.052;2023-01-29T12:43:50;101893.00;;;9.10
23208;BMP180;11773;52.570;13.052;2023-01-29T12:46:31;101886.00;;;9.20
23208;BMP180;11773;52.570;13.052;2023-01-29T12:49:03;101884.00;;;9.20
23208;BMP180;11773;52.570;13.052;2023-01-29T12:51:50;101882.00;;;9.20
23208;BMP180;11773;52.570;13.052;2023-01-29T12:54:21;101875.00;;;9.20
23208;BMP180;11773;52.570;13.052;2023-01-29T12:56:57;101886.00;;;9.30
23208;BMP180;11773;52.570;13.052;2023-01-29T12:59:42;101886.00;;;9.30
23208;BMP180;11773;52.570;13.052;2023-01-29T13:02:31;101883.00;;;9.30
23208;BMP180;11773;52.570;13.052;2023-01-29T13:05:06;101889.00;;;9.30
23208;BMP180;11773;52.570;13.052;2023-01-29T13:07:39;101893.00;;;9.30
23208;BMP180;11773;52.570;13.052;2023-01-29T13:10:17;101893.00;;;9.30
23208;BMP180;11773;52.570;13.052;2023-01-29T13:13:10;101878.00;;;9.30
23208;BMP180;11773;52.570;13.052;2023-01-29T13:15:42;101877.00;;;9.30
23208;BMP180;11773;52.570;13.052;2023-01-29T13:18:40;101871.00;;;9.30
23208;BMP180;11773;52.570;13.052;2023-01-29T13:21:28;101871.00;;;9.30
23208;BMP180;11773;52.570;13.052;2023-01-29T13:24:04;101871.00;;;9.30
23208;BMP180;11773;52.570;13.052;2023-01-29T13:26:34;101864.00;;;9.30
23208;BMP180;11773;52.570;13.052;2023-01-29T13:29:04;101869.00;;;9.30
23208;BMP180;11773;52.570;13.052;2023-01-29T13:31:36;101861.00;;;9.30
23208;BMP180;11773;52.570;13.052;2023-01-29T13:34:14;101857.00;;;9.30
23208;BMP180;11773;52.570;13.052;2023-01-29T13:36:49;101854.00;;;9.30
23208;BMP180;11773;52.570;13.052;2023-01-29T13:39:34;101844.00;;;9.30
23208;BMP180;11773;52.570;13.052;2023-01-29T13:42:42;101854.00;;;9.30
23208;BMP180;11773;52.570;13.052;2023-01-29T13:45:41;101845.00;;;9.30
23208;BMP180;11773;52.570;13.052;2023-01-29T13:48:16;101844.00;;;9.30
23208;BMP180;11773;52.570;13.052;2023-01-29T13:50:44;101844.00;;;9.30
23208;BMP180;11773;52.570;13.052;2023-01-29T13:53:28;101839.00;;;9.30
23208;BMP180;11773;52.570;13.052;2023-01-29T13:56:27;101846.00;;;9.30
23208;BMP180;11773;52.570;13.052;2023-01-29T13:58:57;101836.00;;;9.20
23208;BMP180;11773;52.570;13.052;2023-01-29T14:04:29;101825.00;;;9.20
23208;BMP180;11773;52.570;13.052;2023-01-29T14:07:00;101829.00;;;9.20
23208;BMP180;11773;52.570;13.052;2023-01-29T14:12:31;101817.00;;;9.20
23208;BMP180;11773;52.570;13.052;2023-01-29T14:15:04;101829.00;;;9.20
23208;BMP180;11773;52.570;13.052;2023-01-29T14:17:34;101815.00;;;9.20
23208;BMP180;11773;52.570;13.052;2023-01-29T14:20:20;101812.00;;;9.20
23208;BMP180;11773;52.570;13.052;2023-01-29T14:22:57;101822.00;;;9.20
23208;BMP180;11773;52.570;13.052;2023-01-29T14:25:34;101828.00;;;9.20
23208;BMP180;11773;52.570;13.052;2023-01-29T14:28:12;101814.00;;;9.20
23208;BMP180;11773;52.570;13.052;2023-01-29T14:30:39;101810.00;;;9.20
23208;BMP180;11773;52.570;13.052;2023-01-29T14:33:22;101810.00;;;9.20
23208;BMP180;11773;52.570;13.052;2023-01-29T14:35:50;101828.00;;;9.20
23208;BMP180;11773;52.570;13.052;2023-01-29T14:38:24;101810.00;;;9.20
23208;BMP180;11773;52.570;13.052;2023-01-29T14:41:22;101804.00;;;9.20
23208;BMP180;11773;52.570;13.052;2023-01-29T14:43:48;101805.00;;;9.20
23208;BMP180;11773;52.570;13.052;2023-01-29T14:49:08;101803.00;;;9.20
23208;BMP180;11773;52.570;13.052;2023-01-29T14:51:41;101797.00;;;9.20
23208;BMP180;11773;52.570;13.052;2023-01-29T14:54:24;101799.00;;;9.20
23208;BMP180;11773;52.570;13.052;2023-01-29T14:56:59;101805.00;;;9.10
23208;BMP180;11773;52.570;13.052;2023-01-29T14:59:41;101790.00;;;9.10
23208;BMP180;11773;52.570;13.052;2023-01-29T15:02:22;101789.00;;;9.10
23208;BMP180;11773;52.570;13.052;2023-01-29T15:04:53;101785.00;;;9.10
23208;BMP180;11773;52.570;13.052;2023-01-29T15:07:36;101790.00;;;9.00
23208;BMP180;11773;52.570;13.052;2023-01-29T15:10:37;101779.00;;;9.00
23208;BMP180;11773;52.570;13.052;2023-01-29T15:13:02;101776.00;;;9.00
23208;BMP180;11773;52.570;13.052;2023-01-29T15:15:45;101787.00;;;9.00
23208;BMP180;11773;52.570;13.052;2023-01-29T15:18:35;101786.00;;;9.00
23208;BMP180;11773;52.570;13.052;2023-01-29T15:21:15;101772.00;;;8.90
23208;BMP180;11773;52.570;13.052;2023-01-29T15:23:47;101771.00;;;8.90
23208;BMP180;11773;52.570;13.052;2023-01-29T15:26:22;101762.00;;;8.90
23208;BMP180;11773;52.570;13.052;2023-01-29T15:29:21;101758.00;;;8.90
23208;BMP180;11773;52.570;13.052;2023-01-29T15:31:51;101750.00;;;8.90
23208;BMP180;11773;52.570;13.052;2023-01-29T15:34:21;101759.00;;;9.00
23208;BMP180;11773;52.570;13.052;2023-01-29T15:36:51;101740.00;;;9.00
23208;BMP180;11773;52.570;13.052;2023-01-29T15:39:24;101743.00;;;9.00
23208;BMP180;11773;52.570;13.052;2023-01-29T15:42:12;101734.00;;;8.90
23208;BMP180;11773;52.570;13.052;2023-01-29T15:44:46;101743.00;;;8.90
23208;BMP180;11773;52.570;13.052;2023-01-29T15:47:16;101737.00;;;8.90